Thursday, February 22, 2018, 10:27 AM GMT
Back to Local

CWSA, Sable Island, N. S.

Location: , , Canada Lat: 43.933
Local Time: 10:27 AM GMT (10:27 GMT) Lon: -60.017
Time Zone: GMT Elev: 13 ft

Show me the last for .
Show Decoded

2018-02-22 10:00 METAR CWSA 221000Z AUTO 33026G31KT 9SM CLR 02/M03 A3027 RMK PRESRR TS/LTNG TEMPO
                 UNAVBL SLP251 =
2018-02-22 09:00 METAR CWSA 220900Z AUTO 33026G33KT 9SM BKN100 03/M02 A3022 RMK TS/LTNG TEMPO
                 UNAVBL SLP233 =
2018-02-22 08:00 METAR CWSA 220800Z AUTO 32021G27KT 9SM BKN030 OVC035 04/03 A3018 RMK TS/LTNG
                 TEMPO UNAVBL SLP220 =
2018-02-22 07:30 METAR CWSA 220730Z AUTO 32015G21KT 6SM BR OVC026 05/04 A3016 RMK TS/LTNG TEMPO
                 UNAVBL SLP213 =
2018-02-22 07:27 METAR CWSA 220727Z AUTO 32016G21KT 5SM BR OVC026 05/04 A3015 RMK TS/LTNG TEMPO
                 UNAVBL SLP212 =
2018-02-22 07:00 METAR CWSA 220700Z AUTO 32023KT 5SM BR SCT006 BKN010 BKN016 OVC029 05/05 A3014
                 RMK PRESRR TS/LTNG TEMPO UNAVBL SLP208 =
2018-02-22 06:53 METAR CWSA 220653Z AUTO 31023G28KT 4SM BR BKN006 BKN017 BKN024 OVC029 06/06
                 A3013 RMK PRESRR TS/LTNG TEMPO UNAVBL SLP204 =
2018-02-22 06:50 METAR CWSA 220650Z AUTO 32020G28KT 3SM BR SCT006 SCT010 BKN015 OVC029 06/06
                 A3013 RMK PRESRR TS/LTNG TEMPO UNAVBL SLP203 =
2018-02-22 06:22 METAR CWSA 220622Z AUTO 28018G23KT 2SM BR SCT002 OVC024 06/06 A3009 RMK TS/LTNG
                 TEMPO UNAVBL SLP189 =
2018-02-22 06:00 METAR CWSA 220600Z AUTO 27016G23KT 1 1/2SM BR OVC002 06/06 A3007 RMK PRESRR
                 TS/LTNG TEMPO UNAVBL SLP185 =
2018-02-22 05:36 METAR CWSA 220536Z AUTO 27016G25KT 1SM BR OVC002 06/06 A3005 RMK TS/LTNG TEMPO
                 UNAVBL SLP178 =
2018-02-22 05:00 METAR CWSA 220500Z AUTO 26018G25KT 3/4SM BR VV003 06/06 A3004 RMK TS/LTNG TEMPO
                 UNAVBL SLP172 =
2018-02-22 04:41 METAR CWSA 220441Z AUTO 26017G25KT 3/4SM BR VV003 06/06 A3003 RMK TS/LTNG TEMPO
                 UNAVBL SLP170 =
2018-02-22 04:00 METAR CWSA 220400Z AUTO 27018G24KT 5/8SM -RA BR VV003 06/06 A3002 RMK TS/LTNG
                 TEMPO UNAVBL SLP168 =

Support USWX by starting your Amazon purchase here.